TimePDT,TemperatureF,Dew PointF,Humidity,Sea Level PressureIn,VisibilityMPH,Wind Direction,Wind SpeedMPH,Gust SpeedMPH,PrecipitationIn,Events,Conditions,WindDirDegrees,DateUTC
12:15 AM,32.0,15.8,51,30.23,10.0,ENE,5.8,-,N/A,,Clear,70,2013-10-16 07:15:00
12:35 AM,32.0,15.8,51,30.23,10.0,ENE,4.6,-,N/A,,Clear,70,2013-10-16 07:35:00
12:55 AM,32.0,17.6,55,30.23,10.0,ENE,4.6,-,N/A,,Clear,70,2013-10-16 07:55:00
1:15 AM,32.0,17.6,55,30.23,10.0,ENE,4.6,-,N/A,,Clear,70,2013-10-16 08:15:00
1:35 AM,32.0,17.6,55,30.23,10.0,ENE,4.6,-,N/A,,Clear,70,2013-10-16 08:35:00
1:55 AM,32.0,17.6,55,30.23,10.0,East,4.6,-,N/A,,Clear,80,2013-10-16 08:55:00
2:15 AM,32.0,17.6,55,30.23,10.0,ENE,3.5,-,N/A,,Clear,70,2013-10-16 09:15:00
2:35 AM,30.2,17.6,60,30.23,10.0,Calm,Calm,-,N/A,,Clear,0,2013-10-16 09:35:00
2:55 AM,30.2,19.4,64,30.23,10.0,Calm,Calm,-,N/A,,Clear,0,2013-10-16 09:55:00
3:15 AM,30.2,19.4,64,30.23,10.0,Calm,Calm,-,N/A,,Clear,0,2013-10-16 10:15:00
3:35 AM,30.2,17.6,60,30.23,10.0,East,3.5,-,N/A,,Clear,100,2013-10-16 10:35:00
3:55 AM,30.2,17.6,60,30.23,10.0,East,3.5,-,N/A,,Clear,90,2013-10-16 10:55:00
4:15 AM,30.2,17.6,60,30.23,10.0,Calm,Calm,-,N/A,,Clear,0,2013-10-16 11:15:00
4:35 AM,28.4,17.6,64,30.23,10.0,Calm,Calm,-,N/A,,Clear,0,2013-10-16 11:35:00
4:55 AM,28.4,17.6,64,30.23,10.0,Calm,Calm,-,N/A,,Clear,0,2013-10-16 11:55:00
5:15 AM,28.4,17.6,64,30.23,10.0,Calm,Calm,-,N/A,,Clear,0,2013-10-16 12:15:00
5:35 AM,28.4,17.6,64,30.23,10.0,Calm,Calm,-,N/A,,Clear,0,2013-10-16 12:35:00
5:55 AM,28.4,17.6,64,30.24,10.0,Calm,Calm,-,N/A,,Clear,0,2013-10-16 12:55:00
6:15 AM,28.4,17.6,64,30.24,10.0,Calm,Calm,-,N/A,,Clear,0,2013-10-16 13:15:00
6:35 AM,28.4,17.6,64,30.25,10.0,Calm,Calm,-,N/A,,Clear,0,2013-10-16 13:35:00
6:55 AM,26.6,17.6,69,30.25,10.0,Calm,Calm,-,N/A,,Clear,0,2013-10-16 13:55:00
7:15 AM,26.6,17.6,69,30.26,10.0,Calm,Calm,-,N/A,,Clear,0,2013-10-16 14:15:00
7:35 AM,28.4,17.6,64,30.27,10.0,Calm,Calm,-,N/A,,Clear,0,2013-10-16 14:35:00
7:55 AM,30.2,15.8,55,30.27,10.0,Calm,Calm,-,N/A,,Clear,0,2013-10-16 14:55:00
8:15 AM,32.0,17.6,55,30.28,10.0,Calm,Calm,-,N/A,,Clear,0,2013-10-16 15:15:00
8:35 AM,33.8,17.6,52,30.28,10.0,Calm,Calm,-,N/A,,Clear,0,2013-10-16 15:35:00
8:55 AM,39.2,19.4,45,30.28,10.0,Calm,Calm,-,N/A,,Clear,0,2013-10-16 15:55:00
9:15 AM,42.8,14.0,31,30.28,10.0,ENE,4.6,-,N/A,,Clear,60,2013-10-16 16:15:00
9:35 AM,46.4,3.2,17,30.28,10.0,ENE,3.5,-,N/A,,Clear,60,2013-10-16 16:35:00
9:55 AM,50.0,1.4,14,30.28,10.0,NE,3.5,-,N/A,,Clear,50,2013-10-16 16:55:00
10:15 AM,51.8,-5.8,9,30.28,10.0,East,4.6,-,N/A,,Clear,80,2013-10-16 17:15:00
10:35 AM,51.8,1.4,13,30.28,10.0,East,5.8,-,N/A,,Clear,90,2013-10-16 17:35:00
10:55 AM,51.8,-0.4,12,30.28,10.0,ENE,9.2,-,N/A,,Clear,70,2013-10-16 17:55:00
11:15 AM,51.8,5.0,15,30.28,10.0,East,10.4,-,N/A,,Clear,80,2013-10-16 18:15:00
11:35 AM,53.6,8.6,16,30.28,10.0,ESE,8.1,-,N/A,,Clear,110,2013-10-16 18:35:00
11:55 AM,53.6,8.6,16,30.27,10.0,East,6.9,-,N/A,,Clear,100,2013-10-16 18:55:00
12:15 PM,53.6,8.6,16,30.27,10.0,East,6.9,-,N/A,,Clear,90,2013-10-16 19:15:00
12:35 PM,53.6,10.4,18,30.26,10.0,ESE,6.9,-,N/A,,Clear,110,2013-10-16 19:35:00
12:55 PM,53.6,10.4,18,30.25,10.0,ENE,9.2,-,N/A,,Clear,70,2013-10-16 19:55:00
1:15 PM,55.4,12.2,18,30.25,10.0,ENE,10.4,-,N/A,,Clear,70,2013-10-16 20:15:00
1:35 PM,55.4,12.2,18,30.24,10.0,East,9.2,-,N/A,,Clear,80,2013-10-16 20:35:00
1:55 PM,55.4,12.2,18,30.24,10.0,East,6.9,-,N/A,,Clear,90,2013-10-16 20:55:00
2:15 PM,55.4,14.0,20,30.23,10.0,East,6.9,-,N/A,,Clear,80,2013-10-16 21:15:00
2:35 PM,55.4,14.0,20,30.23,10.0,East,6.9,-,N/A,,Clear,90,2013-10-16 21:35:00
2:55 PM,55.4,14.0,20,30.23,10.0,East,6.9,-,N/A,,Clear,90,2013-10-16 21:55:00
3:15 PM,55.4,14.0,20,30.23,10.0,East,6.9,-,N/A,,Clear,90,2013-10-16 22:15:00
3:35 PM,55.4,14.0,20,30.23,10.0,East,8.1,-,N/A,,Clear,100,2013-10-16 22:35:00
3:55 PM,55.4,14.0,20,30.23,10.0,East,10.4,-,N/A,,Clear,80,2013-10-16 22:55:00
4:15 PM,55.4,14.0,20,30.23,10.0,East,4.6,-,N/A,,Clear,90,2013-10-16 23:15:00
4:35 PM,55.4,14.0,20,30.23,7.0,ESE,6.9,-,N/A,,Clear,120,2013-10-16 23:35:00
4:55 PM,53.6,12.2,19,30.23,5.0,ENE,4.6,-,N/A,,Haze,70,2013-10-16 23:55:00
5:15 PM,53.6,12.2,19,30.23,7.0,Calm,Calm,-,N/A,,Clear,0,2013-10-17 00:15:00
5:35 PM,53.6,17.6,24,30.23,10.0,WSW,3.5,-,N/A,,Clear,250,2013-10-17 00:35:00
5:55 PM,51.8,15.8,24,30.23,10.0,NNE,3.5,-,N/A,,Clear,30,2013-10-17 00:55:00
6:35 PM,44.6,19.4,37,30.24,10.0,Calm,Calm,-,N/A,,Clear,0,2013-10-17 01:35:00
6:55 PM,42.8,19.4,39,30.24,10.0,Calm,Calm,-,N/A,,Clear,0,2013-10-17 01:55:00
7:15 PM,39.2,17.6,42,30.24,10.0,Calm,Calm,-,N/A,,Clear,0,2013-10-17 02:15:00
7:35 PM,37.4,17.6,45,30.25,10.0,Calm,Calm,-,N/A,,Clear,0,2013-10-17 02:35:00
7:55 PM,35.6,17.6,48,30.25,10.0,Calm,Calm,-,N/A,,Clear,0,2013-10-17 02:55:00
8:15 PM,33.8,17.6,52,30.26,10.0,Calm,Calm,-,N/A,,Clear,0,2013-10-17 03:15:00
8:35 PM,32.0,17.6,55,30.26,10.0,Calm,Calm,-,N/A,,Clear,0,2013-10-17 03:35:00
8:55 PM,32.0,17.6,55,30.26,10.0,Calm,Calm,-,N/A,,Clear,0,2013-10-17 03:55:00
9:15 PM,32.0,15.8,51,30.27,10.0,SSW,3.5,-,N/A,,Clear,200,2013-10-17 04:15:00
9:35 PM,32.0,14.0,48,30.27,10.0,Calm,Calm,-,N/A,,Clear,0,2013-10-17 04:35:00
9:55 PM,30.2,14.0,51,30.27,10.0,Calm,Calm,-,N/A,,Clear,0,2013-10-17 04:55:00
10:15 PM,30.2,12.2,47,30.27,10.0,Calm,Calm,-,N/A,,Clear,0,2013-10-17 05:15:00
10:35 PM,28.4,12.2,51,30.27,10.0,Calm,Calm,-,N/A,,Clear,0,2013-10-17 05:35:00
10:55 PM,28.4,10.4,47,30.26,10.0,Calm,Calm,-,N/A,,Clear,0,2013-10-17 05:55:00
11:15 PM,28.4,12.2,51,30.26,10.0,Calm,Calm,-,N/A,,Clear,0,2013-10-17 06:15:00
11:35 PM,28.4,10.4,47,30.26,10.0,Calm,Calm,-,N/A,,Clear,0,2013-10-17 06:35:00
11:55 PM,28.4,10.4,47,30.26,10.0,Calm,Calm,-,N/A,,Clear,0,2013-10-17 06:55:00